Juprelle, Belgium
Current Conditions -  °F | °C
As of 1:50 AM on Saturday 29 Nov 2014 (Local Time) from EBLG Reporting Station
Haze Haze  
Wind Chill:   Ceiling: Unl
Heat Index:   Visibility: 2.8mi
Dew Point:   Wind: 5mph
Humidity: 93%   Direction: 70°ENE
Pressure: 29.83"   Gusts: NA
Location:  50.71°N, 5.53°E
Report Text: EBLG 290050Z 07004KT 360V140 4600 BR NSC 02/01 Q1010 NOSIG
Loading
Personal Weather Stations






























Interactive Weather Map New forecast layout! Learn more

10-Day Weather Forecast

Advertisements
Track Severe Weather on mobile